createdAt,value
2018-01-18T00:00:12.264Z,4.80
2018-01-18T00:02:39.698Z,4.80
2018-01-18T00:05:07.127Z,4.80
2018-01-18T00:07:34.652Z,4.80
2018-01-18T00:10:02.084Z,4.80
2018-01-18T00:12:29.504Z,4.80
2018-01-18T00:14:57.187Z,4.80
2018-01-18T00:17:24.616Z,4.80
2018-01-18T00:19:52.100Z,4.80
2018-01-18T00:22:19.556Z,4.80
2018-01-18T00:24:46.980Z,4.90
2018-01-18T00:27:15.188Z,4.80
2018-01-18T00:29:42.645Z,4.80
2018-01-18T00:32:10.072Z,4.90
2018-01-18T00:34:38.256Z,4.90
2018-01-18T00:37:05.697Z,4.90
2018-01-18T00:39:33.906Z,5.00
2018-01-18T00:42:06.076Z,4.90
2018-01-18T00:44:33.504Z,4.90
2018-01-18T00:47:01.684Z,4.90
2018-01-18T00:49:29.120Z,4.90
2018-01-18T00:51:57.316Z,4.80
2018-01-18T00:54:24.739Z,4.80
2018-01-18T00:56:52.404Z,4.80
2018-01-18T00:59:19.916Z,4.70
2018-01-18T01:01:47.349Z,4.70
2018-01-18T01:04:14.828Z,4.70
2018-01-18T01:06:42.254Z,4.60
2018-01-18T01:09:10.443Z,4.60
2018-01-18T01:11:38.180Z,4.60
2018-01-18T01:14:06.400Z,4.60
2018-01-18T01:16:33.824Z,4.60
2018-01-18T01:19:01.312Z,4.60
2018-01-18T01:21:28.768Z,4.60
2018-01-18T01:23:56.228Z,4.60
2018-01-18T01:26:23.664Z,4.60
2018-01-18T01:28:51.092Z,4.60
2018-01-18T01:31:19.315Z,4.60
2018-01-18T01:33:46.772Z,4.60
2018-01-18T01:36:14.196Z,4.60
2018-01-18T01:38:42.399Z,4.70
2018-01-18T01:41:09.836Z,4.60
2018-01-18T01:43:37.260Z,4.60
2018-01-18T01:46:04.684Z,4.60
2018-01-18T01:48:38.095Z,4.60
2018-01-18T01:51:05.633Z,4.60
2018-01-18T01:53:33.059Z,4.60
2018-01-18T01:56:01.259Z,4.60
2018-01-18T01:58:28.675Z,4.60
2018-01-18T02:00:56.868Z,4.60
2018-01-18T02:03:24.351Z,4.60
2018-01-18T02:05:51.808Z,4.60
2018-01-18T02:08:19.267Z,4.50
2018-01-18T02:10:46.710Z,4.50
2018-01-18T02:13:14.162Z,4.50
2018-01-18T02:15:42.356Z,4.50
2018-01-18T02:18:09.808Z,4.50
2018-01-18T02:20:37.263Z,4.50
2018-01-18T02:23:04.668Z,4.50
2018-01-18T02:25:32.900Z,4.40
2018-01-18T02:28:00.335Z,4.40
2018-01-18T02:30:27.748Z,4.40
2018-01-18T02:32:55.476Z,4.40
2018-01-18T02:35:22.911Z,4.30
2018-01-18T02:37:50.387Z,4.30
2018-01-18T02:40:17.816Z,4.20
2018-01-18T02:42:45.244Z,4.20
2018-01-18T02:45:12.760Z,4.20
2018-01-18T02:47:40.216Z,4.20
2018-01-18T02:50:07.676Z,4.10
2018-01-18T02:52:35.104Z,4.10
2018-01-18T02:55:02.793Z,4.10
2018-01-18T02:57:30.251Z,4.10
2018-01-18T02:59:57.688Z,4.10
2018-01-18T03:02:25.163Z,4.00
2018-01-18T03:04:52.588Z,4.00
2018-01-18T03:07:20.775Z,4.00
2018-01-18T03:09:48.252Z,4.00
2018-01-18T03:12:15.676Z,4.00
2018-01-18T03:14:43.862Z,4.00
2018-01-18T03:17:11.341Z,3.90
2018-01-18T03:19:38.802Z,3.90
2018-01-18T03:22:06.260Z,3.90
2018-01-18T03:24:33.709Z,3.90
2018-01-18T03:27:01.176Z,3.80
2018-01-18T03:29:28.600Z,3.80
2018-01-18T03:31:56.273Z,3.80
2018-01-18T03:34:23.729Z,3.80
2018-01-18T03:36:51.154Z,3.80
2018-01-18T03:39:18.584Z,3.80
2018-01-18T03:41:46.060Z,3.80
2018-01-18T03:44:13.512Z,3.70
2018-01-18T03:46:41.180Z,3.70
2018-01-18T03:49:08.640Z,3.80
2018-01-18T03:51:36.060Z,3.70
2018-01-18T03:54:04.261Z,3.70
2018-01-18T03:56:31.724Z,3.70
2018-01-18T03:58:59.183Z,3.70
2018-01-18T04:01:26.644Z,3.60
2018-01-18T04:03:54.085Z,3.60
2018-01-18T04:06:21.501Z,3.60
2018-01-18T04:08:49.704Z,3.50
2018-01-18T04:11:17.128Z,3.50
2018-01-18T04:13:44.548Z,3.50
2018-01-18T04:16:11.995Z,3.50
2018-01-18T04:18:39.422Z,3.50
2018-01-18T04:21:07.603Z,3.50
2018-01-18T04:23:35.084Z,3.50
2018-01-18T04:26:02.517Z,3.50
2018-01-18T04:28:29.935Z,3.50
2018-01-18T04:30:57.375Z,3.50
2018-01-18T04:33:24.800Z,3.50
2018-01-18T04:35:52.208Z,3.50
2018-01-18T04:38:19.728Z,3.50
2018-01-18T04:40:47.160Z,3.60
2018-01-18T04:43:14.639Z,3.60
2018-01-18T04:45:42.095Z,3.70
2018-01-18T04:48:09.611Z,3.70
2018-01-18T04:50:36.972Z,3.70
2018-01-18T04:53:05.178Z,3.80
2018-01-18T04:55:32.644Z,3.80
2018-01-18T04:58:00.197Z,3.80
2018-01-18T05:00:27.666Z,3.90
2018-01-18T05:02:55.092Z,3.90
2018-01-18T05:05:22.576Z,4.00
2018-01-18T05:07:50.072Z,4.00
2018-01-18T05:10:17.495Z,4.00
2018-01-18T05:12:44.924Z,4.10
2018-01-18T05:15:12.404Z,4.10
2018-01-18T05:17:39.823Z,4.20
2018-01-18T05:20:08.036Z,4.50
2018-01-18T05:22:35.468Z,4.40
2018-01-18T05:25:02.897Z,4.60
2018-01-18T05:27:31.085Z,4.80
2018-01-18T05:29:59.405Z,5.10
2018-01-18T05:32:26.856Z,5.00
2018-01-18T05:34:54.306Z,5.30
2018-01-18T05:37:21.972Z,5.60
2018-01-18T05:39:49.391Z,5.80
2018-01-18T05:42:17.576Z,6.30
2018-01-18T05:44:45.070Z,6.30
2018-01-18T05:47:12.483Z,6.50
2018-01-18T05:49:40.693Z,6.80
2018-01-18T05:52:08.124Z,6.80
2018-01-18T05:54:35.616Z,7.00
2018-01-18T05:57:03.032Z,7.20
2018-01-18T05:59:31.351Z,7.50
2018-01-18T06:01:58.856Z,7.40
2018-01-18T06:04:27.087Z,7.70
2018-01-18T06:06:54.527Z,7.60
2018-01-18T06:09:21.990Z,7.70
2018-01-18T06:11:49.464Z,7.80
2018-01-18T06:14:17.009Z,7.90
2018-01-18T06:16:44.431Z,7.90
2018-01-18T06:19:11.852Z,8.00
2018-01-18T06:21:39.284Z,8.00
2018-01-18T06:24:06.736Z,8.10
2018-01-18T06:26:34.164Z,8.10
2018-01-18T06:29:01.638Z,8.10
2018-01-18T06:31:29.109Z,8.10
2018-01-18T06:33:56.536Z,8.10
2018-01-18T06:36:24.028Z,8.10
2018-01-18T06:38:51.451Z,8.20
2018-01-18T06:41:18.871Z,8.20
2018-01-18T06:43:47.107Z,8.20
2018-01-18T06:46:14.540Z,8.20
2018-01-18T06:48:41.964Z,8.20
2018-01-18T06:51:09.481Z,8.20
2018-01-18T06:53:36.907Z,8.30
2018-01-18T06:56:04.332Z,8.30
2018-01-18T06:58:32.536Z,8.40
2018-01-18T07:01:00.032Z,8.40
2018-01-18T07:03:27.456Z,8.40
2018-01-18T07:05:54.897Z,8.60
2018-01-18T07:08:23.108Z,8.80
2018-01-18T07:10:50.572Z,8.80
2018-01-18T07:13:18.024Z,8.90
2018-01-18T07:15:45.488Z,9.00
2018-01-18T07:18:12.916Z,9.10
2018-01-18T07:20:40.396Z,9.10
2018-01-18T07:23:07.840Z,9.10
2018-01-18T07:25:35.308Z,9.10
2018-01-18T07:28:02.772Z,9.20
2018-01-18T07:30:30.202Z,9.20
2018-01-18T07:32:57.628Z,9.20
2018-01-18T07:35:25.140Z,9.30
2018-01-18T07:37:52.695Z,9.30
2018-01-18T07:40:20.160Z,9.30
2018-01-18T07:42:47.620Z,9.30
2018-01-18T07:45:15.072Z,9.30
2018-01-18T07:47:42.504Z,9.30
2018-01-18T07:50:09.946Z,9.30
2018-01-18T07:52:38.149Z,9.30
2018-01-18T07:55:06.327Z,9.30
2018-01-18T07:57:33.776Z,9.30
2018-01-18T08:00:01.996Z,9.20
2018-01-18T08:02:29.423Z,9.20
2018-01-18T08:04:56.857Z,9.20
2018-01-18T08:07:25.048Z,9.20
2018-01-18T08:09:52.475Z,9.20
2018-01-18T08:12:19.992Z,9.20
2018-01-18T08:14:47.424Z,9.10
2018-01-18T08:17:14.879Z,9.10
2018-01-18T08:19:42.377Z,9.10
2018-01-18T08:22:09.814Z,9.10
2018-01-18T08:24:37.475Z,9.00
2018-01-18T08:27:04.888Z,9.00
2018-01-18T08:29:33.210Z,8.80
2018-01-18T08:32:00.618Z,8.80
2018-01-18T08:34:28.134Z,8.80
2018-01-18T08:36:55.555Z,8.70
2018-01-18T08:39:23.039Z,8.50
2018-01-18T08:41:50.514Z,8.40
2018-01-18T08:44:17.922Z,8.30
2018-01-18T08:46:46.114Z,8.20
2018-01-18T08:49:13.551Z,8.20
2018-01-18T08:51:41.762Z,8.00
2018-01-18T08:54:09.221Z,8.00
2018-01-18T08:56:37.499Z,8.00
2018-01-18T08:59:04.924Z,7.80
2018-01-18T09:01:32.414Z,7.80
2018-01-18T09:03:59.888Z,7.60
2018-01-18T09:06:27.332Z,7.50
2018-01-18T09:08:54.788Z,7.40
2018-01-18T09:11:22.250Z,7.20
2018-01-18T09:13:49.673Z,7.00
2018-01-18T09:16:17.095Z,6.90
2018-01-18T09:18:44.577Z,6.80
2018-01-18T09:21:12.013Z,6.60
2018-01-18T09:23:39.439Z,6.50
2018-01-18T09:26:07.658Z,6.40
2018-01-18T09:28:35.119Z,6.40
2018-01-18T09:31:02.578Z,6.30
2018-01-18T09:33:30.036Z,6.30
2018-01-18T09:35:57.493Z,6.20
2018-01-18T09:38:24.916Z,6.10
2018-01-18T09:40:53.177Z,6.10
2018-01-18T09:43:21.382Z,6.00
2018-01-18T09:45:48.812Z,6.00
2018-01-18T09:48:17.024Z,5.90
2018-01-18T09:50:44.448Z,5.90
2018-01-18T09:53:12.666Z,5.90
2018-01-18T09:55:40.111Z,5.80
2018-01-18T09:58:07.532Z,5.90
2018-01-18T10:00:35.754Z,5.90
2018-01-18T10:03:03.201Z,5.90
2018-01-18T10:05:30.624Z,6.00
2018-01-18T10:07:58.820Z,6.00
2018-01-18T10:10:26.256Z,6.00
2018-01-18T10:12:54.448Z,6.10
2018-01-18T10:15:21.923Z,6.10
2018-01-18T10:17:49.691Z,6.20
2018-01-18T10:20:17.148Z,6.20
2018-01-18T10:22:44.580Z,6.20
2018-01-18T10:25:12.016Z,6.20
2018-01-18T10:27:40.235Z,6.20
2018-01-18T10:30:07.656Z,6.20
2018-01-18T10:32:35.967Z,6.20
2018-01-18T10:35:03.396Z,6.20
2018-01-18T10:37:31.588Z,6.30
2018-01-18T10:39:59.020Z,6.30
2018-01-18T10:42:27.240Z,6.30
2018-01-18T10:44:54.696Z,6.30
2018-01-18T10:47:22.148Z,6.20
2018-01-18T10:49:49.608Z,6.20
2018-01-18T10:52:17.064Z,6.20
2018-01-18T10:54:44.510Z,6.30
2018-01-18T10:57:11.920Z,6.30
2018-01-18T10:59:39.340Z,6.30
2018-01-18T11:02:06.915Z,6.30
2018-01-18T11:04:34.334Z,6.30
2018-01-18T11:07:01.752Z,6.30
2018-01-18T11:09:29.966Z,6.30
2018-01-18T11:11:57.380Z,6.30
2018-01-18T11:14:25.568Z,6.40
2018-01-18T11:16:53.776Z,6.50
2018-01-18T11:19:21.250Z,6.50
2018-01-18T11:21:48.672Z,6.50
2018-01-18T11:24:16.116Z,6.60
2018-01-18T11:26:44.306Z,6.60
2018-01-18T11:29:11.756Z,6.60
2018-01-18T11:31:39.242Z,6.60
2018-01-18T11:34:06.702Z,6.60
2018-01-18T11:36:34.188Z,6.70
2018-01-18T11:39:01.601Z,6.80
2018-01-18T11:41:29.068Z,6.90
2018-01-18T11:43:56.524Z,7.00
2018-01-18T11:46:23.988Z,7.00
2018-01-18T11:48:51.450Z,7.00
2018-01-18T11:51:18.876Z,7.00
2018-01-18T11:53:46.361Z,7.00
2018-01-18T11:56:13.812Z,7.00
2018-01-18T11:58:41.243Z,7.10
2018-01-18T12:01:08.679Z,7.10
2018-01-18T12:03:36.868Z,7.30
2018-01-18T12:06:04.353Z,7.30
2018-01-18T12:08:31.764Z,7.30
2018-01-18T12:10:59.952Z,7.10
2018-01-18T12:13:28.139Z,6.90
2018-01-18T12:15:55.620Z,6.90
2018-01-18T12:18:23.080Z,6.80
2018-01-18T12:20:50.508Z,6.80
2018-01-18T12:23:17.999Z,6.90
2018-01-18T12:25:45.457Z,7.10
2018-01-18T12:28:12.907Z,7.00
2018-01-18T12:30:40.336Z,6.90
2018-01-18T12:33:07.769Z,6.80
2018-01-18T12:35:35.947Z,6.70
2018-01-18T12:38:04.152Z,6.60
2018-01-18T12:40:31.580Z,6.60
2018-01-18T12:42:59.859Z,6.00
2018-01-18T12:45:28.067Z,5.80
2018-01-18T12:47:55.540Z,5.80
2018-01-18T12:50:23.000Z,5.70
2018-01-18T12:52:50.441Z,5.70
2018-01-18T12:55:17.958Z,5.60
2018-01-18T12:57:45.328Z,5.60
2018-01-18T13:00:13.524Z,5.50
2018-01-18T13:02:40.944Z,5.50
2018-01-18T13:05:09.136Z,5.40
2018-01-18T13:07:36.628Z,5.40
2018-01-18T13:10:04.056Z,5.40
2018-01-18T13:12:31.475Z,5.50
2018-01-18T13:14:59.707Z,5.50
2018-01-18T13:17:27.168Z,5.60
2018-01-18T13:19:54.610Z,5.50
2018-01-18T13:22:22.045Z,5.50
2018-01-18T13:24:50.240Z,5.60
2018-01-18T13:27:17.727Z,5.50
2018-01-18T13:29:45.412Z,5.60
2018-01-18T13:32:12.915Z,5.60
2018-01-18T13:34:40.352Z,5.60
2018-01-18T13:37:08.602Z,5.70
2018-01-18T13:39:36.036Z,5.70
2018-01-18T13:42:03.484Z,5.80
2018-01-18T13:44:30.957Z,5.80
2018-01-18T13:46:58.410Z,5.70
2018-01-18T13:49:26.138Z,5.70
2018-01-18T13:51:53.597Z,5.70
2018-01-18T13:54:21.099Z,5.70
2018-01-18T13:56:48.538Z,5.70
2018-01-18T13:59:15.984Z,5.60
2018-01-18T14:01:43.456Z,5.60
2018-01-18T14:04:10.906Z,5.60
2018-01-18T14:06:38.368Z,5.60
2018-01-18T14:09:05.800Z,5.60
2018-01-18T14:11:33.277Z,5.60
2018-01-18T14:14:01.041Z,5.60
2018-01-18T14:16:28.468Z,5.60
2018-01-18T14:18:55.896Z,5.60
2018-01-18T14:21:23.621Z,5.50
2018-01-18T14:23:51.045Z,5.60
2018-01-18T14:26:18.472Z,5.70
2018-01-18T14:28:46.709Z,5.60
2018-01-18T14:31:14.120Z,5.60
2018-01-18T14:33:42.313Z,5.50
2018-01-18T14:36:09.796Z,5.50
2018-01-18T14:38:37.252Z,5.50
2018-01-18T14:41:04.708Z,5.40
2018-01-18T14:43:32.136Z,5.30
2018-01-18T14:45:59.620Z,5.30
2018-01-18T14:50:54.580Z,5.10
2018-01-18T14:53:22.773Z,5.00
2018-01-18T14:55:50.984Z,5.00
2018-01-18T14:58:18.427Z,4.90
2018-01-18T15:00:45.848Z,4.90
2018-01-18T15:03:14.076Z,4.80
2018-01-18T15:05:41.480Z,4.80
2018-01-18T15:08:09.681Z,4.80
2018-01-18T15:10:37.856Z,4.80
2018-01-18T15:13:05.292Z,4.80
2018-01-18T15:15:33.493Z,4.80
2018-01-18T15:18:00.908Z,4.80
2018-01-18T15:20:28.436Z,4.80
2018-01-18T15:22:55.860Z,4.80
2018-01-18T15:25:23.285Z,4.80
2018-01-18T15:27:51.731Z,4.80
2018-01-18T15:30:19.168Z,4.80
2018-01-18T15:32:46.572Z,4.80
2018-01-18T15:35:14.244Z,4.70
2018-01-18T15:37:41.748Z,4.70
2018-01-18T15:40:09.240Z,4.70
2018-01-18T15:42:36.784Z,4.70
2018-01-18T15:45:04.211Z,4.70
2018-01-18T15:47:31.627Z,4.60
2018-01-18T15:49:59.152Z,4.60
2018-01-18T15:52:26.627Z,4.60
2018-01-18T15:54:54.056Z,4.50
2018-01-18T15:57:21.520Z,4.50
2018-01-18T15:59:48.946Z,4.50
2018-01-18T16:02:16.424Z,4.50
2018-01-18T16:04:43.884Z,4.40
2018-01-18T16:07:11.312Z,4.40
2018-01-18T16:09:38.804Z,4.40
2018-01-18T16:12:06.248Z,4.40
2018-01-18T16:14:33.681Z,4.30
2018-01-18T16:17:01.860Z,4.30
2018-01-18T16:19:29.297Z,4.30
2018-01-18T16:21:57.562Z,4.30
2018-01-18T16:24:24.985Z,4.30
2018-01-18T16:26:52.429Z,4.30
2018-01-18T16:29:19.868Z,4.30
2018-01-18T16:31:47.296Z,4.20
2018-01-18T16:34:15.488Z,4.30
2018-01-18T16:36:42.915Z,4.30
2018-01-18T16:39:10.332Z,4.30
2018-01-18T16:41:37.783Z,4.30
2018-01-18T16:44:05.244Z,4.20
2018-01-18T16:46:32.708Z,4.20
2018-01-18T16:49:00.124Z,4.20
2018-01-18T16:51:28.329Z,4.10
2018-01-18T16:53:55.740Z,4.10
2018-01-18T16:56:23.176Z,4.10
2018-01-18T16:58:50.600Z,4.10
2018-01-18T17:03:45.532Z,4.00
2018-01-18T17:06:12.965Z,4.00
2018-01-18T17:08:40.432Z,4.00
2018-01-18T17:11:07.878Z,3.90
2018-01-18T17:13:35.303Z,3.90
2018-01-18T17:16:03.496Z,3.90
2018-01-18T17:18:30.936Z,3.90
2018-01-18T17:20:59.148Z,3.80
2018-01-18T17:23:26.607Z,3.80
2018-01-18T17:25:54.040Z,3.80
2018-01-18T17:28:21.469Z,3.80
2018-01-18T17:30:48.980Z,3.80
2018-01-18T17:33:16.446Z,3.80
2018-01-18T17:35:43.872Z,3.80
2018-01-18T17:38:11.302Z,3.70
2018-01-18T17:40:39.016Z,3.70
2018-01-18T17:43:06.476Z,3.70
2018-01-18T17:45:33.906Z,3.70
2018-01-18T17:48:01.391Z,3.60
2018-01-18T17:50:28.859Z,3.60
2018-01-18T17:52:56.272Z,3.60
2018-01-18T17:55:23.756Z,3.50
2018-01-18T17:57:51.181Z,3.40
2018-01-18T18:00:19.372Z,3.40
2018-01-18T18:02:46.849Z,3.40
2018-01-18T18:05:14.303Z,3.40
2018-01-18T18:07:41.763Z,3.30
2018-01-18T18:10:09.196Z,3.30
2018-01-18T18:12:36.620Z,3.30
2018-01-18T18:15:04.132Z,3.20
2018-01-18T18:17:31.583Z,3.10
2018-01-18T18:19:59.002Z,3.10
2018-01-18T18:22:27.220Z,3.00
2018-01-18T18:24:54.688Z,3.00
2018-01-18T18:27:22.112Z,3.00
2018-01-18T18:29:49.600Z,3.00
2018-01-18T18:32:17.276Z,3.00
2018-01-18T18:34:44.739Z,3.00
2018-01-18T18:37:12.218Z,2.90
2018-01-18T18:39:39.622Z,2.90
2018-01-18T18:42:07.040Z,2.90
2018-01-18T18:44:35.236Z,2.80
2018-01-18T18:47:02.713Z,2.90
2018-01-18T18:49:30.227Z,2.90
2018-01-18T18:51:57.609Z,2.90
2018-01-18T18:54:25.092Z,2.80
2018-01-18T18:56:52.535Z,2.90
2018-01-18T18:59:20.004Z,2.90
2018-01-18T19:01:47.468Z,2.80
2018-01-18T19:04:14.906Z,2.80
2018-01-18T19:06:42.384Z,2.70
2018-01-18T19:09:09.836Z,2.70
2018-01-18T19:11:37.283Z,2.60
2018-01-18T19:14:04.767Z,2.60
2018-01-18T19:16:32.201Z,2.50
2018-01-18T19:18:59.655Z,2.50
2018-01-18T19:21:27.096Z,2.50
2018-01-18T19:23:54.576Z,2.40
2018-01-18T19:26:22.032Z,2.40
2018-01-18T19:28:49.459Z,2.40
2018-01-18T19:31:17.151Z,2.40
2018-01-18T19:33:44.576Z,2.40
2018-01-18T19:36:12.000Z,2.40
2018-01-18T19:38:39.436Z,2.40
2018-01-18T19:41:06.883Z,2.50
2018-01-18T19:43:34.316Z,2.50
2018-01-18T19:46:01.812Z,2.50
2018-01-18T19:48:29.249Z,2.50
2018-01-18T19:50:56.675Z,2.50
2018-01-18T19:53:24.168Z,2.50
2018-01-18T19:55:51.625Z,2.60
2018-01-18T19:58:19.052Z,2.60
2018-01-18T20:00:46.535Z,2.60
2018-01-18T20:03:13.976Z,2.60
2018-01-18T20:05:41.455Z,2.60
2018-01-18T20:08:08.901Z,2.60
2018-01-18T20:10:36.340Z,2.60
2018-01-18T20:13:03.841Z,2.60
2018-01-18T20:15:31.280Z,2.70
2018-01-18T20:17:58.732Z,2.70
2018-01-18T20:20:26.184Z,2.70
2018-01-18T20:22:53.630Z,2.70
2018-01-18T20:25:21.048Z,2.70
2018-01-18T20:27:48.834Z,2.70
2018-01-18T20:30:17.068Z,2.80
2018-01-18T20:32:44.493Z,2.80
2018-01-18T20:35:11.976Z,2.90
2018-01-18T20:37:39.530Z,2.90
2018-01-18T20:40:06.993Z,2.90
2018-01-18T20:42:34.427Z,3.00
2018-01-18T20:45:01.889Z,3.10
2018-01-18T20:47:29.343Z,3.10
2018-01-18T20:49:56.786Z,3.10
2018-01-18T20:52:24.220Z,3.20
2018-01-18T20:54:52.421Z,3.20
2018-01-18T20:57:19.840Z,3.20
2018-01-18T20:59:47.400Z,3.20
2018-01-18T21:02:14.837Z,3.10
2018-01-18T21:04:42.282Z,3.10
2018-01-18T21:07:09.714Z,3.10
2018-01-18T21:09:37.912Z,3.10
2018-01-18T21:12:05.337Z,3.10
2018-01-18T21:14:32.767Z,3.10
2018-01-18T21:17:00.192Z,3.10
2018-01-18T21:19:27.623Z,3.10
2018-01-18T21:21:55.840Z,3.10
2018-01-18T21:24:23.470Z,3.10
2018-01-18T21:26:50.866Z,3.10
2018-01-18T21:29:18.412Z,3.10
2018-01-18T21:31:45.853Z,3.10
2018-01-18T21:34:13.310Z,3.10
2018-01-18T21:36:40.760Z,3.10
2018-01-18T21:39:08.188Z,3.00
2018-01-18T21:41:35.696Z,3.00
2018-01-18T21:44:03.189Z,3.00
2018-01-18T21:46:30.626Z,3.00
2018-01-18T21:48:58.072Z,3.00
2018-01-18T21:51:25.520Z,3.00
2018-01-18T21:53:52.960Z,3.00
2018-01-18T21:56:20.380Z,3.00
2018-01-18T21:58:47.900Z,3.00
2018-01-18T22:01:15.328Z,3.00
2018-01-18T22:03:42.812Z,3.00
2018-01-18T22:06:10.271Z,3.00
2018-01-18T22:08:37.704Z,3.00
2018-01-18T22:11:05.132Z,3.00
2018-01-18T22:13:33.375Z,3.00
2018-01-18T22:16:00.816Z,3.00
2018-01-18T22:18:28.273Z,3.00
2018-01-18T22:20:55.752Z,3.10
2018-01-18T22:23:23.288Z,3.10
2018-01-18T22:25:50.741Z,3.10
2018-01-18T22:28:18.200Z,3.10
2018-01-18T22:30:45.660Z,3.10
2018-01-18T22:33:13.088Z,3.20
2018-01-18T22:35:40.588Z,3.20
2018-01-18T22:38:08.008Z,3.20
2018-01-18T22:40:35.435Z,3.20
2018-01-18T22:43:03.643Z,3.20
2018-01-18T22:45:31.124Z,3.20
2018-01-18T22:47:58.584Z,3.20
2018-01-18T22:50:26.036Z,3.20
2018-01-18T22:52:53.496Z,3.20
2018-01-18T22:55:20.953Z,3.20
2018-01-18T22:57:48.379Z,3.20
2018-01-18T23:00:19.677Z,3.20
2018-01-18T23:02:47.213Z,3.20
2018-01-18T23:05:14.816Z,3.20
2018-01-18T23:07:42.338Z,3.20
2018-01-18T23:10:09.772Z,3.20
2018-01-18T23:12:37.249Z,3.20
2018-01-18T23:15:04.685Z,3.30
2018-01-18T23:17:32.104Z,3.20
2018-01-18T23:19:59.616Z,3.30
2018-01-18T23:22:27.044Z,3.20
2018-01-18T23:24:54.609Z,3.20
2018-01-18T23:27:22.044Z,3.30
2018-01-18T23:29:50.261Z,3.20
2018-01-18T23:32:17.724Z,3.30
2018-01-18T23:34:45.174Z,3.20
2018-01-18T23:37:12.610Z,3.30
2018-01-18T23:39:40.035Z,3.30
2018-01-18T23:42:07.552Z,3.30
2018-01-18T23:44:35.003Z,3.20
2018-01-18T23:47:02.478Z,3.20
2018-01-18T23:49:30.032Z,3.10
2018-01-18T23:51:57.458Z,3.10
2018-01-18T23:54:24.884Z,3.10
2018-01-18T23:56:52.406Z,3.00
2018-01-18T23:59:19.831Z,3.00
